Time;durP1;ratioP1;P1;durP2;ratioP2;P2;SDS_P1;SDS_P2;PMS_P1;PMS_P2;Temp;Humidity;BMP_temperature;BMP_pressure;BME280_temperature;BME280_humidity;BME280_pressure;Samples;Min_cycle;Max_cycle;Signal;HPM_P1;HPM_P2
2022/09/21 00:01:25;;;;;;;1.02;0.50;;;17.50;49.90;;;;;;5034151;28;20185;-71
2022/09/21 00:03:53;;;;;;;1.60;0.30;;;17.50;49.40;;;;;;5034551;28;20051;-69
2022/09/21 00:06:20;;;;;;;0.60;0.25;;;17.50;49.20;;;;;;5034021;28;20030;-71
2022/09/21 00:08:46;;;;;;;2.83;0.30;;;17.50;49.20;;;;;;5033693;28;20555;-68
2022/09/21 00:11:22;;;;;;;0.93;0.38;;;17.40;48.90;;;;;;5033680;28;20036;-71
2022/09/21 00:13:53;;;;;;;4.93;0.30;;;17.40;49.50;;;;;;5034260;28;20041;-69
2022/09/21 00:16:19;;;;;;;0.50;0.30;;;17.40;49.90;;;;;;5033957;28;20017;-71
2022/09/21 00:18:46;;;;;;;0.90;0.30;;;17.40;49.90;;;;;;5034201;28;20037;-68
2022/09/21 00:21:14;;;;;;;0.98;0.35;;;17.40;49.00;;;;;;5033485;28;20078;-68
2022/09/21 00:23:40;;;;;;;0.95;0.30;;;17.40;49.10;;;;;;5033479;28;20029;-68
2022/09/21 00:26:25;;;;;;;0.43;0.20;;;17.40;49.40;;;;;;5034204;28;20044;-68
2022/09/21 00:28:57;;;;;;;0.45;0.25;;;17.40;49.80;;;;;;5033480;28;20097;-69
2022/09/21 00:31:23;;;;;;;0.85;0.30;;;17.40;49.80;;;;;;5034076;28;20079;-69
2022/09/21 00:33:49;;;;;;;0.32;0.28;;;17.40;50.00;;;;;;5033934;28;20014;-70
2022/09/21 00:36:17;;;;;;;0.40;0.30;;;17.40;50.00;;;;;;5033837;28;20037;-77
2022/09/21 00:38:44;;;;;;;2.65;0.40;;;17.30;50.50;;;;;;5033591;28;20030;-69
2022/09/21 00:41:12;;;;;;;0.52;0.30;;;17.30;50.30;;;;;;5033390;28;20060;-71
2022/09/21 00:44:07;;;;;;;0.77;0.40;;;17.30;49.90;;;;;;5033073;28;20025;-70
2022/09/21 00:46:35;;;;;;;0.82;0.50;;;17.30;49.80;;;;;;5033209;28;20108;-69
2022/09/21 00:49:02;;;;;;;0.95;0.35;;;17.30;50.00;;;;;;5032936;28;20048;-68
2022/09/21 00:51:28;;;;;;;0.30;0.30;;;17.30;50.20;;;;;;5033428;28;20045;-77
2022/09/21 00:54:00;;;;;;;1.88;0.50;;;17.30;50.10;;;;;;5034450;28;20045;-69
2022/09/21 00:56:26;;;;;;;3.53;0.40;;;17.20;50.20;;;;;;5033931;28;20034;-69
2022/09/21 00:58:53;;;;;;;3.65;0.50;;;17.20;50.30;;;;;;5031770;28;20033;-69
2022/09/21 01:01:19;;;;;;;1.23;0.45;;;17.20;50.10;;;;;;5031354;28;20527;-71
2022/09/21 01:03:46;;;;;;;1.73;0.50;;;17.20;50.30;;;;;;5031557;28;20057;-69
2022/09/21 01:06:13;;;;;;;1.20;0.45;;;17.20;50.70;;;;;;5033891;28;20041;-69
2022/09/21 01:08:40;;;;;;;0.85;0.40;;;17.10;50.70;;;;;;5033924;28;20086;-69
2022/09/21 01:11:30;;;;;;;1.27;0.40;;;17.10;50.60;;;;;;5033692;28;20077;-74
2022/09/21 01:14:19;;;;;;;1.00;0.40;;;17.10;51.00;;;;;;5033359;28;20033;-69
2022/09/21 01:17:09;;;;;;;3.13;0.68;;;17.00;51.20;;;;;;5033690;28;20380;-69
2022/09/21 01:19:58;;;;;;;0.88;0.47;;;17.00;51.00;;;;;;5033853;28;20033;-69
2022/09/21 01:22:53;;;;;;;0.90;0.40;;;17.00;52.00;;;;;;5033775;28;20044;-68
2022/09/21 01:25:31;;;;;;;1.58;0.60;;;16.90;51.90;;;;;;5033579;28;20033;-73
2022/09/21 01:28:02;;;;;;;1.83;0.45;;;16.90;52.20;;;;;;5033418;28;20376;-70
2022/09/21 01:30:29;;;;;;;3.08;0.50;;;16.90;52.10;;;;;;5033696;28;20051;-68
2022/09/21 01:33:07;;;;;;;3.40;0.60;;;16.90;52.50;;;;;;5033340;28;20048;-76
2022/09/21 01:35:40;;;;;;;0.80;0.50;;;16.80;52.50;;;;;;5032849;28;20104;-69
2022/09/21 01:38:16;;;;;;;2.50;0.40;;;16.80;52.70;;;;;;5033203;28;20438;-75
2022/09/21 01:40:46;;;;;;;2.42;0.40;;;16.80;52.80;;;;;;5033661;28;20504;-76
2022/09/21 01:43:24;;;;;;;0.43;0.30;;;16.80;52.70;;;;;;5033363;28;20022;-69
2022/09/21 01:45:53;;;;;;;0.88;0.40;;;16.70;52.20;;;;;;5033486;28;20032;-69
2022/09/21 01:48:21;;;;;;;1.33;0.50;;;16.70;51.70;;;;;;5031339;28;20026;-70
2022/09/21 01:50:55;;;;;;;0.75;0.50;;;16.70;50.90;;;;;;5031563;28;20052;-73
2022/09/21 01:53:46;;;;;;;0.70;0.45;;;16.70;51.10;;;;;;5032211;28;20325;-78
2022/09/21 01:56:14;;;;;;;7.10;0.40;;;16.70;51.00;;;;;;5031327;28;20446;-71
2022/09/21 01:58:53;;;;;;;1.88;0.57;;;16.70;50.80;;;;;;5030843;28;20493;-70
2022/09/21 02:01:23;;;;;;;3.28;0.47;;;16.70;51.00;;;;;;5031737;28;20064;-69
2022/09/21 02:03:56;;;;;;;0.68;0.40;;;16.70;51.40;;;;;;5031980;28;20341;-69
2022/09/21 02:06:25;;;;;;;1.60;0.40;;;16.60;51.30;;;;;;5030996;28;20108;-70
2022/09/21 02:08:52;;;;;;;0.80;0.57;;;16.60;51.40;;;;;;5029868;28;20069;-69
2022/09/21 02:11:17;;;;;;;0.50;0.30;;;16.60;51.50;;;;;;5029783;28;20480;-76
2022/09/21 02:13:46;;;;;;;1.23;0.40;;;16.60;51.50;;;;;;5029640;28;20448;-70
2022/09/21 02:16:24;;;;;;;4.90;1.15;;;16.60;51.50;;;;;;5030452;28;20075;-68
2022/09/21 02:18:50;;;;;;;1.95;0.47;;;16.50;51.60;;;;;;5030261;28;20151;-71
2022/09/21 02:21:28;;;;;;;1.85;0.55;;;16.50;51.70;;;;;;5030083;28;20022;-71
2022/09/21 02:24:07;;;;;;;4.43;0.47;;;16.50;51.70;;;;;;5029485;28;20041;-70
2022/09/21 02:26:39;;;;;;;5.20;0.50;;;16.40;51.60;;;;;;5028859;28;20073;-73
2022/09/21 02:29:21;;;;;;;2.80;0.50;;;16.40;51.40;;;;;;5029775;28;20042;-69
2022/09/21 02:32:08;;;;;;;3.40;0.50;;;16.30;51.80;;;;;;5029886;28;20374;-68
2022/09/21 02:34:46;;;;;;;0.93;0.40;;;16.40;51.80;;;;;;5030597;28;20025;-71
2022/09/21 02:37:28;;;;;;;1.15;0.60;;;16.30;52.20;;;;;;5029238;28;20025;-74
2022/09/21 02:40:23;;;;;;;2.13;0.50;;;16.30;52.00;;;;;;5029429;28;20041;-71
2022/09/21 02:42:55;;;;;;;1.85;0.73;;;16.30;52.40;;;;;;5028654;28;20124;-71
2022/09/21 02:45:26;;;;;;;3.58;0.70;;;16.30;52.70;;;;;;5029722;28;20076;-70
2022/09/21 02:48:22;;;;;;;2.08;0.50;;;16.20;52.40;;;;;;5032138;28;20549;-70
2022/09/21 02:50:52;;;;;;;2.47;0.60;;;16.20;52.50;;;;;;5032783;28;20053;-70
2022/09/21 02:53:27;;;;;;;2.85;0.30;;;16.20;52.60;;;;;;5033432;28;20037;-69
2022/09/21 02:55:55;;;;;;;0.63;0.40;;;16.20;52.60;;;;;;5034521;28;20107;-71
2022/09/21 02:58:23;;;;;;;1.60;0.73;;;16.10;52.50;;;;;;5033348;28;20075;-69
2022/09/21 03:00:49;;;;;;;0.75;0.40;;;16.10;53.00;;;;;;5034542;28;20049;-72
2022/09/21 03:03:23;;;;;;;1.17;0.40;;;16.10;53.40;;;;;;5034459;28;20076;-74
2022/09/21 03:05:53;;;;;;;1.23;0.40;;;16.10;53.10;;;;;;5035047;28;20029;-78
2022/09/21 03:08:19;;;;;;;0.57;0.40;;;16.10;53.30;;;;;;5035623;28;20031;-68
2022/09/21 03:10:45;;;;;;;1.75;0.60;;;16.10;53.70;;;;;;5034861;28;20029;-69
2022/09/21 03:13:11;;;;;;;1.60;0.50;;;16.10;53.60;;;;;;5035500;28;20468;-69
2022/09/21 03:15:38;;;;;;;1.40;0.60;;;16.10;53.90;;;;;;5035361;28;20539;-69
2022/09/21 03:18:08;;;;;;;3.90;0.50;;;16.10;54.00;;;;;;5035314;28;20087;-69
2022/09/21 03:20:35;;;;;;;1.25;0.40;;;16.10;54.10;;;;;;5035129;28;20380;-70
2022/09/21 03:23:01;;;;;;;1.35;0.55;;;16.00;54.20;;;;;;5035072;28;20025;-69
2022/09/21 03:25:28;;;;;;;0.80;0.50;;;16.00;54.80;;;;;;5035239;28;20027;-69
2022/09/21 03:27:54;;;;;;;1.15;0.60;;;16.00;54.30;;;;;;5035100;28;20083;-74
2022/09/21 03:30:21;;;;;;;0.60;0.38;;;16.00;54.80;;;;;;5034949;28;20045;-68
2022/09/21 03:32:51;;;;;;;1.73;0.43;;;15.90;55.10;;;;;;5035044;28;20124;-69
2022/09/21 03:35:21;;;;;;;1.58;0.52;;;15.90;55.60;;;;;;5034870;28;20025;-69
2022/09/21 03:37:48;;;;;;;1.50;0.60;;;15.90;55.80;;;;;;5035182;28;20044;-69
2022/09/21 03:40:15;;;;;;;1.27;0.50;;;15.80;55.70;;;;;;5035105;28;20025;-69
2022/09/21 03:42:42;;;;;;;2.80;0.60;;;15.80;55.90;;;;;;5034981;28;20326;-69
2022/09/21 03:45:09;;;;;;;0.82;0.55;;;15.80;55.50;;;;;;5034706;28;20030;-69
2022/09/21 03:47:36;;;;;;;1.55;0.40;;;15.80;56.20;;;;;;5034689;28;20034;-76
2022/09/21 03:50:01;;;;;;;2.38;0.55;;;15.70;55.80;;;;;;5034186;28;20561;-68
2022/09/21 03:52:27;;;;;;;1.95;0.80;;;15.70;56.20;;;;;;5033807;28;20021;-68
2022/09/21 03:54:54;;;;;;;1.00;0.50;;;15.70;56.50;;;;;;5033608;28;20025;-69
2022/09/21 03:57:20;;;;;;;1.42;0.52;;;15.60;57.30;;;;;;5032981;28;20017;-69
2022/09/21 03:59:45;;;;;;;1.75;0.70;;;15.60;56.80;;;;;;5033291;28;20028;-70
2022/09/21 04:02:11;;;;;;;2.75;0.77;;;15.60;56.80;;;;;;5033577;28;20036;-69
2022/09/21 04:04:37;;;;;;;2.70;0.73;;;15.60;57.60;;;;;;5033211;28;20025;-69
2022/09/21 04:07:03;;;;;;;0.90;0.60;;;15.50;57.50;;;;;;5033450;28;20030;-69
2022/09/21 04:09:30;;;;;;;0.73;0.50;;;15.50;57.20;;;;;;5033392;28;20041;-76
2022/09/21 04:11:55;;;;;;;2.47;0.50;;;15.40;57.40;;;;;;5033265;28;20418;-68
2022/09/21 04:14:22;;;;;;;1.13;0.68;;;15.40;56.40;;;;;;5033177;28;20032;-69
2022/09/21 04:16:48;;;;;;;2.83;0.70;;;15.40;57.40;;;;;;5033024;28;20064;-69
2022/09/21 04:19:15;;;;;;;1.33;0.70;;;15.30;57.10;;;;;;5033022;28;20025;-72
2022/09/21 04:21:41;;;;;;;1.58;0.90;;;15.30;57.40;;;;;;5033288;28;20075;-69
2022/09/21 04:24:06;;;;;;;3.13;0.70;;;15.30;57.80;;;;;;5032952;28;20033;-68
2022/09/21 04:26:34;;;;;;;1.67;0.65;;;15.20;57.40;;;;;;5033042;28;20034;-69
2022/09/21 04:29:00;;;;;;;0.80;0.50;;;15.20;57.50;;;;;;5033156;28;20723;-69
2022/09/21 04:31:27;;;;;;;2.13;0.65;;;15.20;58.20;;;;;;5033010;28;20080;-75
2022/09/21 04:33:54;;;;;;;1.10;0.70;;;15.20;58.80;;;;;;5032967;28;20033;-68
2022/09/21 04:36:22;;;;;;;3.08;0.70;;;15.20;57.90;;;;;;5033228;28;20195;-69
2022/09/21 04:38:48;;;;;;;0.93;0.50;;;15.20;58.30;;;;;;5033110;28;20384;-68
2022/09/21 04:41:15;;;;;;;4.18;1.05;;;15.10;58.10;;;;;;5032921;28;20152;-69
2022/09/21 04:43:42;;;;;;;1.75;0.57;;;15.10;57.90;;;;;;5032775;28;20032;-69
2022/09/21 04:46:11;;;;;;;3.35;0.70;;;15.10;58.10;;;;;;5032897;28;20029;-69
2022/09/21 04:48:37;;;;;;;4.45;1.20;;;15.10;58.70;;;;;;5032888;28;20175;-70
2022/09/21 04:51:03;;;;;;;1.05;0.70;;;15.00;58.10;;;;;;4985035;28;1389539;-68
2022/09/21 04:53:29;;;;;;;2.33;0.85;;;15.00;58.30;;;;;;5033524;28;20036;-68
2022/09/21 04:55:55;;;;;;;1.80;0.63;;;15.00;59.00;;;;;;5033414;28;20018;-74
2022/09/21 04:58:22;;;;;;;3.60;0.60;;;15.00;58.80;;;;;;5033387;28;20165;-74
2022/09/21 05:00:50;;;;;;;3.05;0.60;;;15.00;58.90;;;;;;5033672;28;20152;-76
2022/09/21 05:03:17;;;;;;;1.95;0.60;;;14.90;58.90;;;;;;5033398;28;20075;-69
2022/09/21 05:05:50;;;;;;;3.00;0.60;;;14.90;59.10;;;;;;5033273;28;20036;-68
2022/09/21 05:08:17;;;;;;;1.23;0.57;;;14.90;59.40;;;;;;5033111;28;20456;-69
2022/09/21 05:10:43;;;;;;;2.65;0.55;;;14.80;59.60;;;;;;5032560;28;20119;-68
2022/09/21 05:13:09;;;;;;;7.15;2.20;;;14.80;59.50;;;;;;5033702;28;20054;-68
2022/09/21 05:15:38;;;;;;;3.97;2.38;;;14.80;59.90;;;;;;5033720;28;20099;-69
2022/09/21 05:18:03;;;;;;;6.03;3.00;;;14.70;60.80;;;;;;5033895;28;20034;-68
2022/09/21 05:20:29;;;;;;;2.90;1.85;;;14.70;61.00;;;;;;5033629;28;20091;-69
2022/09/21 05:22:58;;;;;;;4.88;1.50;;;14.70;60.80;;;;;;5032949;28;20037;-75
2022/09/21 05:25:23;;;;;;;3.38;1.33;;;14.70;61.10;;;;;;5034128;28;20033;-77
2022/09/21 05:27:49;;;;;;;7.93;1.20;;;14.70;61.20;;;;;;5033555;28;20021;-69
2022/09/21 05:30:15;;;;;;;4.85;1.10;;;14.60;61.70;;;;;;5033122;28;20121;-68
2022/09/21 05:32:46;;;;;;;2.58;0.93;;;14.60;62.40;;;;;;5032518;28;20083;-71
2022/09/21 05:35:31;;;;;;;1.53;0.90;;;14.60;62.40;;;;;;5031899;28;20026;-70
2022/09/21 05:38:12;;;;;;;0.82;0.60;;;14.60;61.70;;;;;;5031425;28;20391;-70
2022/09/21 05:40:38;;;;;;;1.58;0.82;;;14.60;62.10;;;;;;5030912;28;20029;-69
2022/09/21 05:43:04;;;;;;;3.40;0.88;;;14.70;61.90;;;;;;5030616;28;20040;-74
2022/09/21 05:45:30;;;;;;;2.00;0.85;;;14.70;62.00;;;;;;5032492;28;20041;-68
2022/09/21 05:48:14;;;;;;;4.05;1.15;;;14.70;62.00;;;;;;5033102;28;20017;-69
2022/09/21 05:51:15;;;;;;;5.47;1.00;;;14.70;62.30;;;;;;5032457;28;20045;-76
2022/09/21 05:53:52;;;;;;;5.97;0.90;;;14.70;61.50;;;;;;4999844;28;20462;-77
2022/09/21 05:56:44;;;;;;;2.38;1.20;;;14.80;63.10;;;;;;5033372;28;20030;-68
2022/09/21 05:59:28;;;;;;;6.25;1.20;;;14.80;62.70;;;;;;5033031;28;20467;-68
2022/09/21 06:02:02;;;;;;;3.30;1.20;;;14.80;62.60;;;;;;5032840;28;20472;-69
2022/09/21 06:04:28;;;;;;;3.92;1.30;;;14.80;63.10;;;;;;5032922;28;20484;-69
2022/09/21 06:06:54;;;;;;;7.75;1.15;;;14.80;61.70;;;;;;5032004;28;20330;-68
2022/09/21 06:09:20;;;;;;;6.00;1.00;;;14.90;61.20;;;;;;5032252;28;20064;-75
2022/09/21 06:11:46;;;;;;;4.65;0.82;;;14.90;62.10;;;;;;5032928;28;20037;-69
2022/09/21 06:14:12;;;;;;;12.70;1.20;;;14.90;61.50;;;;;;5032867;28;20092;-68
2022/09/21 06:16:39;;;;;;;2.55;0.90;;;14.90;61.50;;;;;;5033102;28;20021;-73
2022/09/21 06:19:05;;;;;;;2.17;0.90;;;15.00;62.00;;;;;;5032494;28;20021;-68
2022/09/21 06:21:31;;;;;;;4.97;0.70;;;15.10;62.20;;;;;;5032082;28;20427;-68
2022/09/21 06:23:56;;;;;;;4.40;0.90;;;15.10;62.00;;;;;;5032395;28;20018;-69
2022/09/21 06:26:22;;;;;;;2.95;1.13;;;15.10;61.60;;;;;;5033066;28;20525;-68
2022/09/21 06:28:47;;;;;;;2.38;0.65;;;15.10;62.00;;;;;;5032845;28;20451;-68
2022/09/21 06:31:13;;;;;;;3.72;0.65;;;15.20;61.60;;;;;;5032857;28;20483;-68
2022/09/21 06:33:39;;;;;;;4.47;0.93;;;15.20;61.20;;;;;;5032151;28;20021;-69
2022/09/21 06:36:05;;;;;;;2.22;0.93;;;15.20;61.00;;;;;;5032489;28;20029;-68
2022/09/21 06:38:30;;;;;;;2.90;0.90;;;15.30;60.20;;;;;;5032681;28;20024;-68
2022/09/21 06:41:01;;;;;;;5.38;0.80;;;15.30;60.30;;;;;;5032632;28;20028;-68
2022/09/21 06:43:27;;;;;;;2.38;0.60;;;15.40;60.00;;;;;;5032428;28;20468;-68
2022/09/21 06:45:58;;;;;;;8.13;1.10;;;15.40;59.70;;;;;;5032612;28;20036;-68
2022/09/21 06:48:24;;;;;;;10.40;1.33;;;15.40;60.00;;;;;;5032395;28;20034;-69
2022/09/21 06:50:50;;;;;;;7.15;1.10;;;15.40;60.40;;;;;;5032714;28;20116;-68
2022/09/21 06:53:16;;;;;;;9.85;1.42;;;15.40;60.50;;;;;;5032882;28;20072;-69
2022/09/21 06:55:42;;;;;;;5.68;1.10;;;15.40;60.30;;;;;;5032485;28;20112;-68
2022/09/21 06:58:08;;;;;;;3.92;1.20;;;15.40;60.50;;;;;;5032696;28;20096;-68
2022/09/21 07:00:34;;;;;;;6.32;1.23;;;15.40;60.30;;;;;;5032819;28;20104;-68
2022/09/21 07:03:00;;;;;;;6.47;0.85;;;15.50;59.90;;;;;;5032686;28;20490;-68
2022/09/21 07:05:25;;;;;;;4.88;0.68;;;15.50;59.10;;;;;;5014658;28;20037;-68
2022/09/21 07:07:57;;;;;;;4.32;0.95;;;15.50;59.50;;;;;;5032702;28;20030;-68
2022/09/21 07:10:23;;;;;;;2.57;1.00;;;15.50;59.50;;;;;;5032274;28;20034;-69
2022/09/21 07:12:51;;;;;;;4.30;1.02;;;15.60;59.80;;;;;;5032571;28;20263;-68
2022/09/21 07:15:18;;;;;;;4.30;1.00;;;15.60;59.80;;;;;;5032035;28;20021;-68
2022/09/21 07:17:43;;;;;;;6.90;0.85;;;15.70;60.10;;;;;;5032685;28;20448;-73
2022/09/21 07:20:10;;;;;;;3.55;0.77;;;15.80;59.90;;;;;;5032354;28;20087;-68
2022/09/21 07:22:36;;;;;;;2.85;0.70;;;15.80;60.20;;;;;;5032306;28;20035;-69
2022/09/21 07:25:04;;;;;;;1.75;0.90;;;15.90;60.50;;;;;;5032257;28;20101;-68
2022/09/21 07:27:31;;;;;;;2.00;0.90;;;15.90;59.90;;;;;;5032273;28;20083;-68
2022/09/21 07:29:57;;;;;;;3.72;0.70;;;16.00;58.20;;;;;;5032238;28;20040;-68
2022/09/21 07:32:22;;;;;;;3.40;1.10;;;16.10;58.60;;;;;;5032465;28;20025;-68
2022/09/21 07:34:48;;;;;;;2.05;0.93;;;16.10;58.20;;;;;;5035823;28;20025;-69
2022/09/21 07:37:14;;;;;;;3.10;1.00;;;16.20;59.10;;;;;;5035756;28;20022;-68
2022/09/21 07:39:40;;;;;;;2.50;0.90;;;16.30;59.10;;;;;;5035875;28;20021;-68
2022/09/21 07:42:05;;;;;;;3.40;0.90;;;16.40;59.80;;;;;;5035754;28;20527;-68
2022/09/21 07:44:31;;;;;;;9.55;1.10;;;16.40;59.50;;;;;;5035739;28;20026;-67
2022/09/21 07:46:57;;;;;;;3.30;1.20;;;16.50;58.80;;;;;;5035844;28;20118;-68
2022/09/21 07:49:23;;;;;;;1.98;0.90;;;16.50;58.50;;;;;;5035553;28;20038;-68
2022/09/21 07:51:48;;;;;;;5.82;1.05;;;16.60;58.10;;;;;;5035287;28;20049;-68
2022/09/21 07:54:14;;;;;;;1.88;1.00;;;16.70;57.30;;;;;;5035633;28;20026;-68
2022/09/21 07:56:41;;;;;;;4.55;1.15;;;16.70;57.10;;;;;;5035465;28;20025;-81
2022/09/21 07:59:10;;;;;;;6.30;1.23;;;16.70;56.70;;;;;;5035268;28;20034;-67
2022/09/21 08:01:40;;;;;;;15.27;1.40;;;16.80;56.30;;;;;;5035274;28;20467;-67
2022/09/21 08:04:08;;;;;;;2.72;1.00;;;16.90;56.60;;;;;;5035408;28;20460;-66
2022/09/21 08:06:36;;;;;;;3.33;1.13;;;17.00;56.40;;;;;;5034795;28;20033;-65
2022/09/21 08:09:03;;;;;;;5.60;0.80;;;17.10;55.00;;;;;;5034864;28;20502;-67
2022/09/21 08:11:31;;;;;;;2.72;0.90;;;17.10;55.10;;;;;;5034669;28;20044;-65
2022/09/21 08:14:00;;;;;;;1.85;0.82;;;17.20;55.00;;;;;;5035017;28;20032;-66
2022/09/21 08:16:27;;;;;;;6.97;1.35;;;17.20;53.90;;;;;;5034637;28;20021;-66
2022/09/21 08:18:54;;;;;;;3.83;0.73;;;17.20;53.40;;;;;;5034419;28;20108;-66
2022/09/21 08:21:20;;;;;;;3.95;0.68;;;17.30;52.90;;;;;;5034239;28;20025;-66
2022/09/21 08:23:48;;;;;;;3.78;0.50;;;17.30;52.90;;;;;;5034453;28;20032;-66
2022/09/21 08:26:17;;;;;;;2.70;0.50;;;17.40;52.10;;;;;;5034649;28;20527;-65
2022/09/21 08:28:47;;;;;;;2.50;0.80;;;17.40;51.90;;;;;;5034576;28;20028;-68
2022/09/21 08:31:14;;;;;;;2.17;0.70;;;17.40;53.90;;;;;;5034429;28;20033;-66
2022/09/21 08:33:39;;;;;;;4.55;0.80;;;17.40;53.50;;;;;;5034574;28;20034;-66
2022/09/21 08:36:06;;;;;;;2.00;0.80;;;17.40;52.00;;;;;;5034702;28;20029;-66
2022/09/21 08:38:33;;;;;;;3.75;0.90;;;17.50;51.80;;;;;;5034693;28;20029;-66
2022/09/21 08:41:01;;;;;;;2.45;0.60;;;17.40;51.30;;;;;;5033750;28;20022;-66
2022/09/21 08:43:37;;;;;;;2.05;0.50;;;17.40;51.50;;;;;;5032890;28;20083;-66
2022/09/21 08:46:14;;;;;;;2.40;0.70;;;17.50;51.30;;;;;;5033434;28;20104;-66
2022/09/21 08:48:49;;;;;;;2.97;0.63;;;17.50;51.90;;;;;;5034087;28;20021;-66
2022/09/21 08:51:22;;;;;;;2.80;0.30;;;17.60;51.80;;;;;;5033968;28;20144;-66
2022/09/21 08:53:52;;;;;;;1.08;0.40;;;17.70;51.00;;;;;;5034057;28;20096;-66
2022/09/21 08:56:20;;;;;;;1.17;0.40;;;17.80;50.40;;;;;;5034179;28;20061;-68
2022/09/21 08:58:46;;;;;;;0.85;0.38;;;17.90;50.70;;;;;;5034309;28;20056;-66
2022/09/21 09:01:37;;;;;;;1.10;0.30;;;17.90;50.60;;;;;;5034324;28;20119;-66
2022/09/21 09:04:25;;;;;;;1.23;0.25;;;18.00;50.30;;;;;;5033658;28;20495;-66
2022/09/21 09:06:51;;;;;;;3.50;0.50;;;18.10;49.60;;;;;;5033877;28;20025;-66
2022/09/21 09:09:31;;;;;;;1.65;0.40;;;18.10;49.20;;;;;;5033760;28;20057;-68
2022/09/21 09:12:25;;;;;;;1.75;0.47;;;18.20;49.10;;;;;;5033648;28;20494;-66
2022/09/21 09:15:09;;;;;;;1.13;0.30;;;18.30;48.40;;;;;;5032086;28;20029;-66
2022/09/21 09:17:43;;;;;;;2.30;0.38;;;18.30;47.60;;;;;;5032935;28;20030;-67
2022/09/21 09:20:29;;;;;;;0.75;0.32;;;18.40;47.80;;;;;;5032426;28;20117;-66
2022/09/21 09:23:06;;;;;;;1.65;0.50;;;18.30;48.00;;;;;;5035545;28;20021;-66
2022/09/21 09:25:44;;;;;;;1.27;0.50;;;18.40;48.50;;;;;;5047714;28;20411;-67
2022/09/21 09:28:27;;;;;;;2.40;0.50;;;18.50;48.40;;;;;;5036508;28;20029;-66
2022/09/21 09:31:04;;;;;;;2.58;0.60;;;18.50;47.60;;;;;;5043693;28;20041;-65
2022/09/21 09:33:51;;;;;;;1.77;0.50;;;18.60;48.10;;;;;;5053441;28;20033;-66
2022/09/21 09:36:17;;;;;;;1.50;0.40;;;18.60;45.70;;;;;;5052424;28;20476;-66
2022/09/21 09:38:56;;;;;;;1.75;0.40;;;18.60;46.60;;;;;;5053091;28;20025;-66
2022/09/21 09:41:25;;;;;;;1.42;0.40;;;18.60;47.70;;;;;;5053203;28;20411;-66
2022/09/21 09:43:56;;;;;;;2.15;0.70;;;18.60;46.40;;;;;;5053297;28;20040;-66
2022/09/21 09:46:25;;;;;;;4.53;0.32;;;18.70;46.90;;;;;;5053385;28;20383;-66
2022/09/21 09:49:06;;;;;;;1.45;0.38;;;18.70;46.20;;;;;;5053332;28;20045;-66
2022/09/21 09:51:39;;;;;;;3.10;0.60;;;18.70;46.10;;;;;;5052988;28;20052;-66
2022/09/21 09:54:12;;;;;;;1.27;0.40;;;18.80;44.20;;;;;;5053430;28;20096;-67
2022/09/21 09:56:38;;;;;;;2.67;0.57;;;18.80;45.50;;;;;;5053029;28;20104;-68
2022/09/21 09:59:08;;;;;;;1.77;0.50;;;18.80;46.30;;;;;;5053041;28;20458;-67
2022/09/21 10:01:45;;;;;;;0.57;0.28;;;18.80;45.10;;;;;;5051402;28;20059;-67
2022/09/21 10:04:13;;;;;;;2.38;0.60;;;18.80;44.90;;;;;;5048771;28;20033;-67
2022/09/21 10:06:40;;;;;;;1.00;0.30;;;18.90;46.30;;;;;;5050130;28;20094;-67
2022/09/21 10:09:27;;;;;;;1.08;0.57;;;18.90;46.70;;;;;;5050491;28;20363;-66
2022/09/21 10:12:00;;;;;;;0.63;0.20;;;19.10;45.50;;;;;;5049849;28;20282;-67
2022/09/21 10:14:30;;;;;;;1.58;0.47;;;19.10;45.70;;;;;;5048988;28;20461;-67
2022/09/21 10:17:02;;;;;;;2.83;0.40;;;19.10;43.30;;;;;;5050058;28;20108;-67
2022/09/21 10:19:28;;;;;;;;;;;19.20;46.80;;;;;;5048914;28;20118;-67
2022/09/21 10:21:59;;;;;;;3.95;0.60;;;19.20;45.80;;;;;;5049957;28;19905;-67
2022/09/21 10:24:27;;;;;;;1.35;0.30;;;19.30;44.60;;;;;;5050200;28;20075;-67
2022/09/21 10:26:55;;;;;;;1.48;0.40;;;19.40;45.60;;;;;;5050716;28;20410;-67
2022/09/21 10:29:21;;;;;;;0.85;0.30;;;19.40;46.00;;;;;;5050217;28;20091;-67
2022/09/21 10:32:26;;;;;;;1.27;0.30;;;19.50;45.60;;;;;;5051292;28;20033;-67
2022/09/21 10:35:04;;;;;;;1.77;0.32;;;19.70;42.90;;;;;;5010731;28;20096;-67
2022/09/21 10:37:36;;;;;;;8.07;0.63;;;19.80;41.80;;;;;;5011041;28;20591;-67
2022/09/21 10:40:02;;;;;;;0.68;0.50;;;19.90;42.50;;;;;;5035696;28;20486;-67
2022/09/21 10:42:34;;;;;;;0.10;0.10;;;19.90;43.30;;;;;;5052420;28;20021;-67
2022/09/21 10:45:13;;;;;;;1.08;0.30;;;20.00;40.70;;;;;;5052773;28;20075;-67
2022/09/21 10:47:46;;;;;;;1.52;0.43;;;20.10;41.80;;;;;;5052740;28;20023;-67
2022/09/21 10:50:26;;;;;;;0.80;0.40;;;20.20;42.70;;;;;;5052145;28;20380;-67
2022/09/21 10:52:59;;;;;;;3.30;0.35;;;20.20;42.40;;;;;;5052983;28;20033;-67
2022/09/21 10:55:27;;;;;;;0.65;0.50;;;20.20;43.70;;;;;;5052423;28;20022;-67
2022/09/21 10:57:53;;;;;;;1.55;0.50;;;20.20;43.10;;;;;;5052627;28;20033;-67
2022/09/21 11:00:34;;;;;;;0.85;0.30;;;20.30;43.80;;;;;;5052650;28;20357;-67
2022/09/21 11:03:22;;;;;;;0.60;0.30;;;20.30;43.30;;;;;;5052635;28;20053;-66
2022/09/21 11:05:50;;;;;;;0.75;0.43;;;20.30;42.90;;;;;;5052070;28;20029;-67
2022/09/21 11:08:38;;;;;;;0.93;0.30;;;20.30;43.50;;;;;;5054163;28;20037;-67
2022/09/21 11:11:20;;;;;;;0.63;0.40;;;20.30;43.80;;;;;;5056101;28;20037;-66
2022/09/21 11:13:55;;;;;;;0.85;0.38;;;20.40;42.80;;;;;;5056287;28;20032;-66
2022/09/21 11:16:26;;;;;;;0.40;0.30;;;20.40;42.50;;;;;;5056144;28;20032;-66
2022/09/21 11:19:15;;;;;;;0.80;0.37;;;20.50;42.50;;;;;;5056009;28;20025;-67
2022/09/21 11:21:48;;;;;;;2.40;0.43;;;20.50;41.90;;;;;;5056113;28;20170;-67
2022/09/21 11:24:39;;;;;;;1.95;0.30;;;20.60;42.20;;;;;;5056405;28;20082;-67
2022/09/21 11:27:43;;;;;;;1.02;0.30;;;20.60;40.80;;;;;;5056241;28;20021;-65
2022/09/21 11:30:13;;;;;;;1.77;0.30;;;20.70;40.30;;;;;;5055917;28;20107;-65
2022/09/21 11:32:39;;;;;;;0.75;0.20;;;20.80;40.50;;;;;;5055964;28;20036;-66
2022/09/21 11:35:25;;;;;;;0.82;0.40;;;20.90;41.60;;;;;;5056031;28;20494;-65
2022/09/21 11:38:09;;;;;;;0.68;0.35;;;21.00;39.90;;;;;;5055718;28;20029;-66
2022/09/21 11:40:44;;;;;;;1.00;0.40;;;21.00;40.40;;;;;;5055747;28;20102;-65
2022/09/21 11:43:37;;;;;;;0.40;0.28;;;21.10;40.20;;;;;;5055914;28;20044;-66
2022/09/21 11:46:11;;;;;;;1.90;0.50;;;21.10;40.80;;;;;;5055471;28;20028;-66
2022/09/21 11:48:58;;;;;;;0.98;0.38;;;21.10;40.90;;;;;;5055429;28;20033;-66
2022/09/21 11:51:37;;;;;;;0.70;0.40;;;21.00;41.10;;;;;;5055178;28;20049;-65
2022/09/21 11:54:20;;;;;;;0.75;0.40;;;21.00;40.60;;;;;;5055427;28;20567;-65
2022/09/21 11:57:03;;;;;;;0.95;0.50;;;21.00;41.10;;;;;;5055364;28;20094;-65
2022/09/21 12:00:17;;;;;;;0.90;0.40;;;21.00;40.70;;;;;;5055501;28;20391;-67
2022/09/21 12:03:08;;;;;;;1.00;0.40;;;21.00;40.10;;;;;;5018487;28;20041;-65
2022/09/21 12:06:13;;;;;;;0.98;0.40;;;21.00;40.80;;;;;;5055004;28;20036;-65
2022/09/21 12:08:56;;;;;;;1.30;0.40;;;21.00;40.40;;;;;;5032135;28;20476;-65
2022/09/21 12:11:39;;;;;;;0.55;0.30;;;21.00;40.40;;;;;;5052261;28;20508;-65
2022/09/21 12:14:23;;;;;;;0.98;0.38;;;21.00;39.40;;;;;;5052449;28;20029;-65
2022/09/21 12:17:14;;;;;;;0.30;0.30;;;20.90;39.20;;;;;;5053373;28;20066;-65
2022/09/21 12:19:51;;;;;;;1.52;0.60;;;20.70;39.80;;;;;;5054544;28;20047;-67
2022/09/21 12:22:28;;;;;;;1.55;0.45;;;20.70;40.00;;;;;;5054800;28;20100;-67
2022/09/21 12:25:17;;;;;;;0.65;0.43;;;20.60;40.30;;;;;;5054395;28;20051;-67
2022/09/21 12:27:46;;;;;;;1.08;0.40;;;20.60;39.90;;;;;;5054624;28;20025;-67
2022/09/21 12:30:15;;;;;;;2.58;0.50;;;20.50;39.70;;;;;;5054678;28;20029;-67
2022/09/21 12:33:00;;;;;;;0.85;0.30;;;20.50;40.40;;;;;;5054290;28;20017;-67
2022/09/21 12:35:42;;;;;;;2.05;0.40;;;20.50;40.20;;;;;;5054435;28;20064;-67
2022/09/21 12:38:23;;;;;;;0.88;0.30;;;20.50;40.70;;;;;;5054676;28;20103;-65
2022/09/21 12:41:10;;;;;;;2.47;0.40;;;20.50;40.20;;;;;;5051236;28;20491;-65
2022/09/21 12:44:00;;;;;;;1.20;0.40;;;20.50;40.10;;;;;;5052589;28;20025;-67
2022/09/21 12:46:49;;;;;;;1.20;0.47;;;20.40;40.30;;;;;;5054115;28;20024;-65
2022/09/21 12:49:20;;;;;;;1.13;0.60;;;20.30;40.30;;;;;;5054568;28;20033;-67
2022/09/21 12:51:54;;;;;;;1.08;0.40;;;20.30;40.90;;;;;;5054283;28;20045;-68
2022/09/21 12:54:36;;;;;;;0.70;0.45;;;20.30;40.70;;;;;;5054429;28;20573;-67
2022/09/21 12:57:21;;;;;;;0.80;0.50;;;20.30;40.90;;;;;;5054285;28;20131;-67
2022/09/21 12:59:59;;;;;;;0.63;0.30;;;20.30;40.90;;;;;;5054263;28;20031;-66
2022/09/21 13:02:34;;;;;;;0.73;0.40;;;20.30;40.40;;;;;;5054341;28;20033;-70
2022/09/21 13:05:26;;;;;;;1.20;0.30;;;20.40;39.80;;;;;;5054109;28;20036;-67
2022/09/21 13:08:24;;;;;;;1.10;0.50;;;20.30;40.70;;;;;;5054193;28;20033;-67
2022/09/21 13:10:56;;;;;;;1.15;0.50;;;20.40;41.50;;;;;;5053979;28;20079;-65
2022/09/21 13:13:25;;;;;;;0.50;0.30;;;20.30;40.90;;;;;;5053842;28;20032;-67
2022/09/21 13:15:52;;;;;;;2.38;0.30;;;20.30;40.20;;;;;;5053872;28;20025;-67